sensor_id;sensor_type;location;lat;lon;timestamp;P1;durP1;ratioP1;P2;durP2;ratioP2
20623;SDS011;10471;42.736;23.346;2023-08-24T00:02:00;18.63;;;16.37;;
20623;SDS011;10471;42.736;23.346;2023-08-24T00:04:26;18.80;;;16.40;;
20623;SDS011;10471;42.736;23.346;2023-08-24T00:06:52;18.87;;;16.37;;
20623;SDS011;10471;42.736;23.346;2023-08-24T00:09:17;21.93;;;16.23;;
20623;SDS011;10471;42.736;23.346;2023-08-24T00:11:43;18.47;;;16.40;;
20623;SDS011;10471;42.736;23.346;2023-08-24T00:14:08;20.03;;;15.70;;
20623;SDS011;10471;42.736;23.346;2023-08-24T00:16:34;19.23;;;16.53;;
20623;SDS011;10471;42.736;23.346;2023-08-24T00:18:59;17.67;;;15.60;;
20623;SDS011;10471;42.736;23.346;2023-08-24T00:21:25;20.73;;;16.87;;
20623;SDS011;10471;42.736;23.346;2023-08-24T00:23:50;20.73;;;17.17;;
20623;SDS011;10471;42.736;23.346;2023-08-24T00:26:16;22.73;;;16.67;;
20623;SDS011;10471;42.736;23.346;2023-08-24T00:28:44;20.83;;;17.17;;
20623;SDS011;10471;42.736;23.346;2023-08-24T00:31:10;26.33;;;21.30;;
20623;SDS011;10471;42.736;23.346;2023-08-24T00:33:36;29.00;;;21.97;;
20623;SDS011;10471;42.736;23.346;2023-08-24T00:36:02;29.40;;;22.30;;
20623;SDS011;10471;42.736;23.346;2023-08-24T00:38:29;28.90;;;22.47;;
20623;SDS011;10471;42.736;23.346;2023-08-24T00:40:55;28.30;;;21.10;;
20623;SDS011;10471;42.736;23.346;2023-08-24T00:43:21;26.63;;;21.53;;
20623;SDS011;10471;42.736;23.346;2023-08-24T00:45:50;31.53;;;23.03;;
20623;SDS011;10471;42.736;23.346;2023-08-24T00:48:16;31.87;;;23.57;;
20623;SDS011;10471;42.736;23.346;2023-08-24T00:50:43;29.40;;;22.97;;
20623;SDS011;10471;42.736;23.346;2023-08-24T00:53:08;29.17;;;23.20;;
20623;SDS011;10471;42.736;23.346;2023-08-24T00:55:34;29.00;;;22.57;;
20623;SDS011;10471;42.736;23.346;2023-08-24T00:57:59;29.50;;;22.17;;
20623;SDS011;10471;42.736;23.346;2023-08-24T01:00:25;27.50;;;21.80;;
20623;SDS011;10471;42.736;23.346;2023-08-24T01:02:50;32.47;;;22.53;;
20623;SDS011;10471;42.736;23.346;2023-08-24T01:05:15;25.87;;;21.33;;
20623;SDS011;10471;42.736;23.346;2023-08-24T01:07:41;31.13;;;23.60;;
20623;SDS011;10471;42.736;23.346;2023-08-24T01:10:07;28.63;;;22.80;;
20623;SDS011;10471;42.736;23.346;2023-08-24T01:16:02;25.60;;;21.53;;
20623;SDS011;10471;42.736;23.346;2023-08-24T01:18:14;26.83;;;22.20;;
20623;SDS011;10471;42.736;23.346;2023-08-24T01:20:44;27.90;;;22.17;;
20623;SDS011;10471;42.736;23.346;2023-08-24T01:25:48;30.40;;;23.17;;
20623;SDS011;10471;42.736;23.346;2023-08-24T01:28:18;25.57;;;22.27;;
20623;SDS011;10471;42.736;23.346;2023-08-24T01:30:47;31.70;;;23.10;;
20623;SDS011;10471;42.736;23.346;2023-08-24T01:33:13;28.60;;;23.30;;
20623;SDS011;10471;42.736;23.346;2023-08-24T01:35:39;35.10;;;24.07;;
20623;SDS011;10471;42.736;23.346;2023-08-24T01:38:05;33.00;;;23.90;;
20623;SDS011;10471;42.736;23.346;2023-08-24T01:43:18;37.90;;;27.37;;
20623;SDS011;10471;42.736;23.346;2023-08-24T01:45:46;42.70;;;30.10;;
20623;SDS011;10471;42.736;23.346;2023-08-24T01:48:13;35.83;;;26.83;;
20623;SDS011;10471;42.736;23.346;2023-08-24T01:50:40;37.73;;;27.40;;
20623;SDS011;10471;42.736;23.346;2023-08-24T01:53:07;32.90;;;25.77;;
20623;SDS011;10471;42.736;23.346;2023-08-24T01:55:33;32.70;;;25.57;;
20623;SDS011;10471;42.736;23.346;2023-08-24T01:57:59;38.97;;;26.57;;
20623;SDS011;10471;42.736;23.346;2023-08-24T02:00:25;32.83;;;25.27;;
20623;SDS011;10471;42.736;23.346;2023-08-24T02:02:50;35.17;;;25.30;;
20623;SDS011;10471;42.736;23.346;2023-08-24T02:05:16;31.97;;;24.50;;
20623;SDS011;10471;42.736;23.346;2023-08-24T02:07:41;32.73;;;24.63;;
20623;SDS011;10471;42.736;23.346;2023-08-24T02:10:07;32.10;;;24.60;;
20623;SDS011;10471;42.736;23.346;2023-08-24T02:12:32;33.93;;;24.53;;
20623;SDS011;10471;42.736;23.346;2023-08-24T02:14:58;32.23;;;25.03;;
20623;SDS011;10471;42.736;23.346;2023-08-24T02:17:23;31.87;;;23.43;;
20623;SDS011;10471;42.736;23.346;2023-08-24T02:19:49;31.07;;;24.07;;
20623;SDS011;10471;42.736;23.346;2023-08-24T02:22:14;28.70;;;23.77;;
20623;SDS011;10471;42.736;23.346;2023-08-24T02:24:39;27.30;;;22.27;;
20623;SDS011;10471;42.736;23.346;2023-08-24T02:27:05;29.20;;;22.63;;
20623;SDS011;10471;42.736;23.346;2023-08-24T02:29:30;25.70;;;22.23;;
20623;SDS011;10471;42.736;23.346;2023-08-24T02:31:56;28.17;;;22.43;;
20623;SDS011;10471;42.736;23.346;2023-08-24T02:34:21;30.00;;;23.83;;
20623;SDS011;10471;42.736;23.346;2023-08-24T02:36:47;29.90;;;23.30;;
20623;SDS011;10471;42.736;23.346;2023-08-24T02:39:12;32.67;;;24.40;;
20623;SDS011;10471;42.736;23.346;2023-08-24T02:41:38;35.03;;;25.33;;
20623;SDS011;10471;42.736;23.346;2023-08-24T02:44:03;32.50;;;24.90;;
20623;SDS011;10471;42.736;23.346;2023-08-24T02:46:29;35.40;;;26.07;;
20623;SDS011;10471;42.736;23.346;2023-08-24T02:48:54;33.23;;;23.63;;
20623;SDS011;10471;42.736;23.346;2023-08-24T02:51:23;28.07;;;22.20;;
20623;SDS011;10471;42.736;23.346;2023-08-24T02:53:49;31.63;;;22.17;;
20623;SDS011;10471;42.736;23.346;2023-08-24T02:56:15;31.47;;;23.67;;
20623;SDS011;10471;42.736;23.346;2023-08-24T02:58:41;30.90;;;22.80;;
20623;SDS011;10471;42.736;23.346;2023-08-24T03:01:06;31.97;;;23.10;;
20623;SDS011;10471;42.736;23.346;2023-08-24T03:03:32;33.37;;;23.63;;
20623;SDS011;10471;42.736;23.346;2023-08-24T03:06:05;29.03;;;22.70;;
20623;SDS011;10471;42.736;23.346;2023-08-24T03:08:31;29.30;;;23.27;;
20623;SDS011;10471;42.736;23.346;2023-08-24T03:10:58;30.77;;;23.70;;
20623;SDS011;10471;42.736;23.346;2023-08-24T03:13:24;29.90;;;22.13;;
20623;SDS011;10471;42.736;23.346;2023-08-24T03:15:49;33.33;;;23.53;;
20623;SDS011;10471;42.736;23.346;2023-08-24T03:18:15;28.70;;;23.83;;
20623;SDS011;10471;42.736;23.346;2023-08-24T03:20:42;36.40;;;23.73;;
20623;SDS011;10471;42.736;23.346;2023-08-24T03:23:08;32.60;;;23.07;;
20623;SDS011;10471;42.736;23.346;2023-08-24T03:25:37;31.50;;;23.40;;
20623;SDS011;10471;42.736;23.346;2023-08-24T03:28:05;31.17;;;22.83;;
20623;SDS011;10471;42.736;23.346;2023-08-24T03:30:33;27.83;;;22.07;;
20623;SDS011;10471;42.736;23.346;2023-08-24T03:32:59;29.33;;;22.37;;
20623;SDS011;10471;42.736;23.346;2023-08-24T03:35:24;30.57;;;22.83;;
20623;SDS011;10471;42.736;23.346;2023-08-24T03:37:50;34.47;;;22.77;;
20623;SDS011;10471;42.736;23.346;2023-08-24T03:40:16;30.37;;;22.60;;
20623;SDS011;10471;42.736;23.346;2023-08-24T03:42:41;32.23;;;21.33;;
20623;SDS011;10471;42.736;23.346;2023-08-24T03:45:07;26.90;;;21.70;;
20623;SDS011;10471;42.736;23.346;2023-08-24T03:47:33;28.03;;;21.57;;
20623;SDS011;10471;42.736;23.346;2023-08-24T03:49:58;29.03;;;20.67;;
20623;SDS011;10471;42.736;23.346;2023-08-24T03:52:24;29.17;;;22.33;;
20623;SDS011;10471;42.736;23.346;2023-08-24T03:54:50;29.50;;;24.80;;
20623;SDS011;10471;42.736;23.346;2023-08-24T03:57:15;50.07;;;37.57;;
20623;SDS011;10471;42.736;23.346;2023-08-24T03:59:41;35.23;;;27.27;;
20623;SDS011;10471;42.736;23.346;2023-08-24T04:02:07;37.47;;;26.83;;
20623;SDS011;10471;42.736;23.346;2023-08-24T04:04:32;36.00;;;26.67;;
20623;SDS011;10471;42.736;23.346;2023-08-24T04:06:58;37.57;;;27.27;;
20623;SDS011;10471;42.736;23.346;2023-08-24T04:09:23;39.73;;;26.97;;
20623;SDS011;10471;42.736;23.346;2023-08-24T04:11:49;38.47;;;26.43;;
20623;SDS011;10471;42.736;23.346;2023-08-24T04:14:14;47.33;;;26.50;;
20623;SDS011;10471;42.736;23.346;2023-08-24T04:16:40;32.13;;;23.73;;
20623;SDS011;10471;42.736;23.346;2023-08-24T04:19:06;34.80;;;24.43;;
20623;SDS011;10471;42.736;23.346;2023-08-24T04:21:32;30.70;;;22.93;;
20623;SDS011;10471;42.736;23.346;2023-08-24T04:23:57;32.60;;;23.53;;
20623;SDS011;10471;42.736;23.346;2023-08-24T04:26:24;30.53;;;22.60;;
20623;SDS011;10471;42.736;23.346;2023-08-24T04:28:49;32.73;;;23.03;;
20623;SDS011;10471;42.736;23.346;2023-08-24T04:31:15;29.27;;;20.77;;
20623;SDS011;10471;42.736;23.346;2023-08-24T04:33:40;33.83;;;21.07;;
20623;SDS011;10471;42.736;23.346;2023-08-24T04:36:06;30.93;;;21.87;;
20623;SDS011;10471;42.736;23.346;2023-08-24T04:38:31;29.57;;;21.23;;
20623;SDS011;10471;42.736;23.346;2023-08-24T04:40:57;27.03;;;21.73;;
20623;SDS011;10471;42.736;23.346;2023-08-24T04:43:23;34.87;;;22.13;;
20623;SDS011;10471;42.736;23.346;2023-08-24T04:45:49;31.33;;;21.83;;
20623;SDS011;10471;42.736;23.346;2023-08-24T04:48:17;32.77;;;21.43;;
20623;SDS011;10471;42.736;23.346;2023-08-24T04:50:43;33.67;;;23.10;;
20623;SDS011;10471;42.736;23.346;2023-08-24T04:53:14;30.33;;;21.67;;
20623;SDS011;10471;42.736;23.346;2023-08-24T04:55:41;27.17;;;22.13;;
20623;SDS011;10471;42.736;23.346;2023-08-24T04:58:07;31.00;;;21.77;;
20623;SDS011;10471;42.736;23.346;2023-08-24T05:00:33;32.37;;;22.67;;
20623;SDS011;10471;42.736;23.346;2023-08-24T05:03:00;26.83;;;21.60;;
20623;SDS011;10471;42.736;23.346;2023-08-24T05:05:26;30.57;;;22.90;;
20623;SDS011;10471;42.736;23.346;2023-08-24T05:07:53;29.43;;;21.57;;
20623;SDS011;10471;42.736;23.346;2023-08-24T05:10:19;38.93;;;23.17;;
20623;SDS011;10471;42.736;23.346;2023-08-24T05:12:45;34.17;;;22.67;;
20623;SDS011;10471;42.736;23.346;2023-08-24T05:15:10;30.40;;;22.63;;
20623;SDS011;10471;42.736;23.346;2023-08-24T05:17:36;31.13;;;22.30;;
20623;SDS011;10471;42.736;23.346;2023-08-24T05:20:01;28.33;;;22.50;;
20623;SDS011;10471;42.736;23.346;2023-08-24T05:22:28;26.80;;;21.30;;
20623;SDS011;10471;42.736;23.346;2023-08-24T05:24:54;28.13;;;22.13;;
20623;SDS011;10471;42.736;23.346;2023-08-24T05:27:19;27.70;;;22.80;;
20623;SDS011;10471;42.736;23.346;2023-08-24T05:29:45;28.87;;;22.30;;
20623;SDS011;10471;42.736;23.346;2023-08-24T05:32:10;29.93;;;22.77;;
20623;SDS011;10471;42.736;23.346;2023-08-24T05:34:35;30.60;;;21.83;;
20623;SDS011;10471;42.736;23.346;2023-08-24T05:37:01;29.70;;;21.10;;
20623;SDS011;10471;42.736;23.346;2023-08-24T05:39:26;26.50;;;21.30;;
20623;SDS011;10471;42.736;23.346;2023-08-24T05:41:52;29.10;;;22.07;;
20623;SDS011;10471;42.736;23.346;2023-08-24T05:44:21;26.17;;;22.80;;
20623;SDS011;10471;42.736;23.346;2023-08-24T05:46:46;26.30;;;20.60;;
20623;SDS011;10471;42.736;23.346;2023-08-24T05:49:12;27.23;;;21.17;;
20623;SDS011;10471;42.736;23.346;2023-08-24T05:51:38;24.53;;;21.77;;
20623;SDS011;10471;42.736;23.346;2023-08-24T05:54:03;26.13;;;23.33;;
20623;SDS011;10471;42.736;23.346;2023-08-24T05:56:29;29.23;;;22.57;;
20623;SDS011;10471;42.736;23.346;2023-08-24T05:58:54;32.33;;;23.80;;
20623;SDS011;10471;42.736;23.346;2023-08-24T06:01:20;31.37;;;24.63;;
20623;SDS011;10471;42.736;23.346;2023-08-24T06:03:47;33.40;;;23.93;;
20623;SDS011;10471;42.736;23.346;2023-08-24T06:06:12;30.43;;;21.83;;
20623;SDS011;10471;42.736;23.346;2023-08-24T06:08:37;27.10;;;22.10;;
20623;SDS011;10471;42.736;23.346;2023-08-24T06:11:03;26.63;;;22.93;;
20623;SDS011;10471;42.736;23.346;2023-08-24T06:13:28;29.20;;;22.50;;
20623;SDS011;10471;42.736;23.346;2023-08-24T06:15:54;27.33;;;22.20;;
20623;SDS011;10471;42.736;23.346;2023-08-24T06:18:19;30.00;;;21.70;;
20623;SDS011;10471;42.736;23.346;2023-08-24T06:20:45;30.90;;;21.03;;
20623;SDS011;10471;42.736;23.346;2023-08-24T06:23:11;26.10;;;20.00;;
20623;SDS011;10471;42.736;23.346;2023-08-24T06:25:38;24.53;;;19.60;;
20623;SDS011;10471;42.736;23.346;2023-08-24T06:28:04;26.47;;;19.13;;
20623;SDS011;10471;42.736;23.346;2023-08-24T06:30:30;29.13;;;20.90;;
20623;SDS011;10471;42.736;23.346;2023-08-24T06:33:02;31.47;;;20.80;;
20623;SDS011;10471;42.736;23.346;2023-08-24T06:35:28;21.37;;;18.83;;
20623;SDS011;10471;42.736;23.346;2023-08-24T06:37:54;22.67;;;18.07;;
20623;SDS011;10471;42.736;23.346;2023-08-24T06:40:19;23.43;;;18.17;;
20623;SDS011;10471;42.736;23.346;2023-08-24T06:42:45;23.70;;;18.40;;
20623;SDS011;10471;42.736;23.346;2023-08-24T06:45:10;21.57;;;18.03;;
20623;SDS011;10471;42.736;23.346;2023-08-24T06:47:35;24.23;;;18.90;;
20623;SDS011;10471;42.736;23.346;2023-08-24T06:50:01;22.63;;;17.27;;
20623;SDS011;10471;42.736;23.346;2023-08-24T06:52:27;19.10;;;16.07;;
20623;SDS011;10471;42.736;23.346;2023-08-24T06:54:52;21.10;;;17.87;;
20623;SDS011;10471;42.736;23.346;2023-08-24T06:57:20;21.60;;;17.47;;
20623;SDS011;10471;42.736;23.346;2023-08-24T06:59:46;22.33;;;17.10;;
20623;SDS011;10471;42.736;23.346;2023-08-24T07:02:11;22.20;;;17.10;;
20623;SDS011;10471;42.736;23.346;2023-08-24T07:04:37;26.23;;;17.80;;
20623;SDS011;10471;42.736;23.346;2023-08-24T07:07:05;21.73;;;16.97;;
20623;SDS011;10471;42.736;23.346;2023-08-24T07:09:30;27.23;;;16.80;;
20623;SDS011;10471;42.736;23.346;2023-08-24T07:11:56;23.63;;;17.20;;
20623;SDS011;10471;42.736;23.346;2023-08-24T07:14:21;22.40;;;16.20;;
20623;SDS011;10471;42.736;23.346;2023-08-24T07:16:46;20.20;;;16.63;;
20623;SDS011;10471;42.736;23.346;2023-08-24T07:19:12;23.90;;;16.77;;
20623;SDS011;10471;42.736;23.346;2023-08-24T07:21:37;24.17;;;16.13;;
20623;SDS011;10471;42.736;23.346;2023-08-24T07:24:03;23.67;;;16.27;;
20623;SDS011;10471;42.736;23.346;2023-08-24T07:26:29;22.53;;;15.87;;
20623;SDS011;10471;42.736;23.346;2023-08-24T07:28:55;21.63;;;16.00;;
20623;SDS011;10471;42.736;23.346;2023-08-24T07:31:21;26.10;;;16.63;;
20623;SDS011;10471;42.736;23.346;2023-08-24T07:33:47;27.93;;;16.67;;
20623;SDS011;10471;42.736;23.346;2023-08-24T07:36:13;22.57;;;16.03;;
20623;SDS011;10471;42.736;23.346;2023-08-24T07:38:38;27.93;;;16.00;;
20623;SDS011;10471;42.736;23.346;2023-08-24T07:41:04;24.37;;;16.37;;
20623;SDS011;10471;42.736;23.346;2023-08-24T07:43:31;20.10;;;16.30;;
20623;SDS011;10471;42.736;23.346;2023-08-24T07:45:57;25.87;;;16.57;;
20623;SDS011;10471;42.736;23.346;2023-08-24T07:48:22;21.37;;;16.73;;
20623;SDS011;10471;42.736;23.346;2023-08-24T07:50:48;19.83;;;16.60;;
20623;SDS011;10471;42.736;23.346;2023-08-24T07:53:13;25.63;;;16.87;;
20623;SDS011;10471;42.736;23.346;2023-08-24T07:55:39;23.23;;;16.43;;
20623;SDS011;10471;42.736;23.346;2023-08-24T07:58:04;21.73;;;15.60;;
20623;SDS011;10471;42.736;23.346;2023-08-24T08:00:30;21.27;;;15.47;;
20623;SDS011;10471;42.736;23.346;2023-08-24T08:02:55;19.97;;;16.23;;
20623;SDS011;10471;42.736;23.346;2023-08-24T08:05:21;18.27;;;15.20;;
20623;SDS011;10471;42.736;23.346;2023-08-24T08:07:47;19.27;;;15.40;;
20623;SDS011;10471;42.736;23.346;2023-08-24T08:10:13;21.53;;;14.57;;
20623;SDS011;10471;42.736;23.346;2023-08-24T08:12:40;24.40;;;15.73;;
20623;SDS011;10471;42.736;23.346;2023-08-24T08:15:06;20.73;;;15.50;;
20623;SDS011;10471;42.736;23.346;2023-08-24T08:17:31;21.97;;;15.40;;
20623;SDS011;10471;42.736;23.346;2023-08-24T08:19:58;17.63;;;15.33;;
20623;SDS011;10471;42.736;23.346;2023-08-24T08:22:23;19.47;;;15.03;;
20623;SDS011;10471;42.736;23.346;2023-08-24T08:24:50;21.17;;;14.97;;
20623;SDS011;10471;42.736;23.346;2023-08-24T08:27:16;19.07;;;14.53;;
20623;SDS011;10471;42.736;23.346;2023-08-24T08:29:41;20.73;;;15.73;;
20623;SDS011;10471;42.736;23.346;2023-08-24T08:32:08;26.23;;;15.47;;
20623;SDS011;10471;42.736;23.346;2023-08-24T08:34:33;17.17;;;14.20;;
20623;SDS011;10471;42.736;23.346;2023-08-24T08:36:58;18.67;;;14.53;;
20623;SDS011;10471;42.736;23.346;2023-08-24T08:39:24;19.17;;;14.63;;
20623;SDS011;10471;42.736;23.346;2023-08-24T08:41:49;21.53;;;15.20;;
20623;SDS011;10471;42.736;23.346;2023-08-24T08:44:15;24.73;;;16.30;;
20623;SDS011;10471;42.736;23.346;2023-08-24T08:46:41;20.87;;;16.03;;
20623;SDS011;10471;42.736;23.346;2023-08-24T08:49:07;17.93;;;14.50;;
20623;SDS011;10471;42.736;23.346;2023-08-24T08:51:38;18.27;;;14.63;;
20623;SDS011;10471;42.736;23.346;2023-08-24T08:54:04;20.30;;;14.20;;
20623;SDS011;10471;42.736;23.346;2023-08-24T08:56:31;21.23;;;15.23;;
20623;SDS011;10471;42.736;23.346;2023-08-24T08:58:56;19.83;;;15.83;;
20623;SDS011;10471;42.736;23.346;2023-08-24T09:01:25;21.17;;;15.13;;
20623;SDS011;10471;42.736;23.346;2023-08-24T09:03:51;20.63;;;15.60;;
20623;SDS011;10471;42.736;23.346;2023-08-24T09:06:18;19.20;;;15.43;;
20623;SDS011;10471;42.736;23.346;2023-08-24T09:08:44;20.50;;;14.50;;
20623;SDS011;10471;42.736;23.346;2023-08-24T09:11:10;17.20;;;14.97;;
20623;SDS011;10471;42.736;23.346;2023-08-24T09:13:35;19.87;;;15.27;;
20623;SDS011;10471;42.736;23.346;2023-08-24T09:16:07;21.90;;;14.27;;
20623;SDS011;10471;42.736;23.346;2023-08-24T09:18:34;16.00;;;14.53;;
20623;SDS011;10471;42.736;23.346;2023-08-24T09:21:07;18.00;;;14.90;;
20623;SDS011;10471;42.736;23.346;2023-08-24T09:23:37;18.57;;;15.20;;
20623;SDS011;10471;42.736;23.346;2023-08-24T09:26:07;17.33;;;15.33;;
20623;SDS011;10471;42.736;23.346;2023-08-24T09:28:33;17.33;;;15.53;;
20623;SDS011;10471;42.736;23.346;2023-08-24T09:30:59;17.00;;;15.20;;
20623;SDS011;10471;42.736;23.346;2023-08-24T09:33:26;17.25;;;15.18;;
20623;SDS011;10471;42.736;23.346;2023-08-24T09:35:54;21.70;;;15.57;;
20623;SDS011;10471;42.736;23.346;2023-08-24T09:38:26;18.33;;;15.00;;
20623;SDS011;10471;42.736;23.346;2023-08-24T09:40:52;17.93;;;15.90;;
20623;SDS011;10471;42.736;23.346;2023-08-24T09:43:19;17.55;;;15.50;;
20623;SDS011;10471;42.736;23.346;2023-08-24T09:45:49;19.05;;;15.60;;
20623;SDS011;10471;42.736;23.346;2023-08-24T09:48:15;17.27;;;15.57;;
20623;SDS011;10471;42.736;23.346;2023-08-24T09:50:42;16.70;;;15.07;;
20623;SDS011;10471;42.736;23.346;2023-08-24T09:53:09;21.50;;;15.18;;
20623;SDS011;10471;42.736;23.346;2023-08-24T09:55:44;17.80;;;15.45;;
20623;SDS011;10471;42.736;23.346;2023-08-24T09:58:14;20.10;;;16.08;;
20623;SDS011;10471;42.736;23.346;2023-08-24T10:00:41;17.88;;;15.75;;
20623;SDS011;10471;42.736;23.346;2023-08-24T10:03:08;18.48;;;15.77;;
20623;SDS011;10471;42.736;23.346;2023-08-24T10:05:36;17.63;;;15.13;;
20623;SDS011;10471;42.736;23.346;2023-08-24T10:08:03;17.70;;;15.85;;
20623;SDS011;10471;42.736;23.346;2023-08-24T10:10:32;18.35;;;15.38;;
20623;SDS011;10471;42.736;23.346;2023-08-24T10:13:01;17.92;;;15.45;;
20623;SDS011;10471;42.736;23.346;2023-08-24T10:15:33;18.17;;;16.17;;
20623;SDS011;10471;42.736;23.346;2023-08-24T10:18:00;16.92;;;15.18;;
20623;SDS011;10471;42.736;23.346;2023-08-24T10:20:26;16.55;;;14.68;;
20623;SDS011;10471;42.736;23.346;2023-08-24T10:22:52;17.25;;;15.63;;
20623;SDS011;10471;42.736;23.346;2023-08-24T10:25:18;16.85;;;15.18;;
20623;SDS011;10471;42.736;23.346;2023-08-24T10:27:45;17.55;;;15.77;;
20623;SDS011;10471;42.736;23.346;2023-08-24T10:30:13;22.10;;;16.25;;
20623;SDS011;10471;42.736;23.346;2023-08-24T10:32:40;19.58;;;15.68;;
20623;SDS011;10471;42.736;23.346;2023-08-24T10:35:08;19.88;;;15.77;;
20623;SDS011;10471;42.736;23.346;2023-08-24T10:37:33;23.52;;;17.30;;
20623;SDS011;10471;42.736;23.346;2023-08-24T10:39:59;19.85;;;15.77;;
20623;SDS011;10471;42.736;23.346;2023-08-24T10:42:25;19.17;;;16.08;;
20623;SDS011;10471;42.736;23.346;2023-08-24T10:44:51;17.58;;;15.70;;
20623;SDS011;10471;42.736;23.346;2023-08-24T10:47:21;15.88;;;14.25;;
20623;SDS011;10471;42.736;23.346;2023-08-24T10:52:25;13.47;;;12.07;;
20623;SDS011;10471;42.736;23.346;2023-08-24T10:54:55;12.13;;;10.90;;
20623;SDS011;10471;42.736;23.346;2023-08-24T10:57:30;14.57;;;11.13;;
20623;SDS011;10471;42.736;23.346;2023-08-24T11:00:03;16.23;;;12.33;;
20623;SDS011;10471;42.736;23.346;2023-08-24T11:05:22;15.00;;;13.23;;
20623;SDS011;10471;42.736;23.346;2023-08-24T11:07:59;14.00;;;12.60;;
20623;SDS011;10471;42.736;23.346;2023-08-24T11:10:34;16.67;;;12.53;;
20623;SDS011;10471;42.736;23.346;2023-08-24T11:13:14;14.33;;;12.93;;
20623;SDS011;10471;42.736;23.346;2023-08-24T11:15:48;14.37;;;12.97;;
20623;SDS011;10471;42.736;23.346;2023-08-24T11:20:52;14.93;;;13.27;;
20623;SDS011;10471;42.736;23.346;2023-08-24T11:23:19;15.57;;;12.43;;
20623;SDS011;10471;42.736;23.346;2023-08-24T11:25:45;14.17;;;12.00;;
20623;SDS011;10471;42.736;23.346;2023-08-24T11:28:16;14.93;;;11.80;;
20623;SDS011;10471;42.736;23.346;2023-08-24T11:30:44;13.00;;;10.70;;
20623;SDS011;10471;42.736;23.346;2023-08-24T11:33:11;12.27;;;10.97;;
20623;SDS011;10471;42.736;23.346;2023-08-24T11:35:39;12.03;;;10.53;;
20623;SDS011;10471;42.736;23.346;2023-08-24T11:38:06;13.80;;;11.70;;
20623;SDS011;10471;42.736;23.346;2023-08-24T11:40:32;13.87;;;12.47;;
20623;SDS011;10471;42.736;23.346;2023-08-24T11:42:57;13.83;;;11.97;;
20623;SDS011;10471;42.736;23.346;2023-08-24T11:45:23;14.30;;;12.90;;
20623;SDS011;10471;42.736;23.346;2023-08-24T11:47:49;14.67;;;11.90;;
20623;SDS011;10471;42.736;23.346;2023-08-24T11:50:16;16.47;;;12.63;;
20623;SDS011;10471;42.736;23.346;2023-08-24T11:52:42;14.87;;;12.77;;
20623;SDS011;10471;42.736;23.346;2023-08-24T11:55:07;20.13;;;13.90;;
20623;SDS011;10471;42.736;23.346;2023-08-24T11:57:37;15.07;;;13.23;;
20623;SDS011;10471;42.736;23.346;2023-08-24T12:00:03;16.13;;;13.93;;
20623;SDS011;10471;42.736;23.346;2023-08-24T12:02:30;18.03;;;14.50;;
20623;SDS011;10471;42.736;23.346;2023-08-24T12:04:57;18.97;;;14.77;;
20623;SDS011;10471;42.736;23.346;2023-08-24T12:07:22;19.17;;;14.20;;
20623;SDS011;10471;42.736;23.346;2023-08-24T12:09:49;15.80;;;14.10;;
20623;SDS011;10471;42.736;23.346;2023-08-24T12:12:17;16.33;;;14.63;;
20623;SDS011;10471;42.736;23.346;2023-08-24T12:14:45;17.63;;;15.90;;
20623;SDS011;10471;42.736;23.346;2023-08-24T12:17:12;16.67;;;14.83;;
20623;SDS011;10471;42.736;23.346;2023-08-24T12:19:44;16.57;;;14.93;;
20623;SDS011;10471;42.736;23.346;2023-08-24T12:22:14;16.97;;;15.17;;
20623;SDS011;10471;42.736;23.346;2023-08-24T12:24:47;17.60;;;15.67;;
20623;SDS011;10471;42.736;23.346;2023-08-24T12:29:45;17.33;;;15.50;;
20623;SDS011;10471;42.736;23.346;2023-08-24T12:32:11;18.23;;;15.90;;
20623;SDS011;10471;42.736;23.346;2023-08-24T12:34:36;17.90;;;16.00;;
20623;SDS011;10471;42.736;23.346;2023-08-24T12:37:02;17.33;;;15.63;;
20623;SDS011;10471;42.736;23.346;2023-08-24T12:39:27;17.87;;;16.03;;
20623;SDS011;10471;42.736;23.346;2023-08-24T12:41:52;17.53;;;15.13;;
20623;SDS011;10471;42.736;23.346;2023-08-24T12:44:18;18.00;;;15.20;;
20623;SDS011;10471;42.736;23.346;2023-08-24T12:46:43;14.90;;;13.40;;
20623;SDS011;10471;42.736;23.346;2023-08-24T12:49:09;15.73;;;14.13;;
20623;SDS011;10471;42.736;23.346;2023-08-24T12:51:34;15.83;;;14.13;;
20623;SDS011;10471;42.736;23.346;2023-08-24T12:53:59;15.10;;;13.17;;
20623;SDS011;10471;42.736;23.346;2023-08-24T12:56:25;14.50;;;13.07;;
20623;SDS011;10471;42.736;23.346;2023-08-24T12:58:50;15.80;;;13.73;;
20623;SDS011;10471;42.736;23.346;2023-08-24T13:01:20;15.67;;;13.87;;
20623;SDS011;10471;42.736;23.346;2023-08-24T13:03:45;17.70;;;13.03;;
20623;SDS011;10471;42.736;23.346;2023-08-24T13:06:10;14.33;;;12.83;;
20623;SDS011;10471;42.736;23.346;2023-08-24T13:08:36;16.47;;;13.17;;
20623;SDS011;10471;42.736;23.346;2023-08-24T13:11:01;18.13;;;13.13;;
20623;SDS011;10471;42.736;23.346;2023-08-24T13:13:27;15.87;;;13.00;;
20623;SDS011;10471;42.736;23.346;2023-08-24T13:15:53;17.90;;;16.00;;
20623;SDS011;10471;42.736;23.346;2023-08-24T13:18:18;16.93;;;15.00;;
20623;SDS011;10471;42.736;23.346;2023-08-24T13:20:43;20.10;;;15.90;;
20623;SDS011;10471;42.736;23.346;2023-08-24T13:23:09;14.07;;;12.67;;
20623;SDS011;10471;42.736;23.346;2023-08-24T13:25:34;17.80;;;12.73;;
20623;SDS011;10471;42.736;23.346;2023-08-24T13:28:00;14.70;;;13.20;;
20623;SDS011;10471;42.736;23.346;2023-08-24T13:30:25;13.20;;;11.90;;
20623;SDS011;10471;42.736;23.346;2023-08-24T13:32:52;15.03;;;12.43;;
20623;SDS011;10471;42.736;23.346;2023-08-24T13:35:17;13.83;;;12.07;;
20623;SDS011;10471;42.736;23.346;2023-08-24T13:37:43;14.90;;;13.37;;
20623;SDS011;10471;42.736;23.346;2023-08-24T13:40:08;16.37;;;13.57;;
20623;SDS011;10471;42.736;23.346;2023-08-24T13:42:34;14.40;;;12.97;;
20623;SDS011;10471;42.736;23.346;2023-08-24T13:44:59;15.70;;;13.13;;
20623;SDS011;10471;42.736;23.346;2023-08-24T13:47:25;14.77;;;13.30;;
20623;SDS011;10471;42.736;23.346;2023-08-24T13:49:50;16.27;;;14.53;;
20623;SDS011;10471;42.736;23.346;2023-08-24T13:52:16;17.57;;;15.80;;
20623;SDS011;10471;42.736;23.346;2023-08-24T13:54:43;16.90;;;14.27;;
20623;SDS011;10471;42.736;23.346;2023-08-24T13:57:09;15.27;;;13.67;;
20623;SDS011;10471;42.736;23.346;2023-08-24T13:59:34;15.30;;;12.97;;
20623;SDS011;10471;42.736;23.346;2023-08-24T14:02:00;18.00;;;12.50;;
20623;SDS011;10471;42.736;23.346;2023-08-24T14:04:25;13.40;;;12.18;;
20623;SDS011;10471;42.736;23.346;2023-08-24T14:06:50;14.48;;;11.80;;
20623;SDS011;10471;42.736;23.346;2023-08-24T14:09:16;15.40;;;11.67;;
20623;SDS011;10471;42.736;23.346;2023-08-24T14:11:41;13.73;;;12.33;;
20623;SDS011;10471;42.736;23.346;2023-08-24T14:14:07;13.32;;;12.10;;
20623;SDS011;10471;42.736;23.346;2023-08-24T14:16:33;13.95;;;12.65;;
20623;SDS011;10471;42.736;23.346;2023-08-24T14:18:58;14.00;;;12.57;;
20623;SDS011;10471;42.736;23.346;2023-08-24T14:21:24;13.52;;;12.07;;
20623;SDS011;10471;42.736;23.346;2023-08-24T14:23:49;14.25;;;12.18;;